Time;durP1;ratioP1;P1;durP2;ratioP2;P2;SDS_P1;SDS_P2;PMS_P1;PMS_P2;Temp;Humidity;BMP_temperature;BMP_pressure;BME280_temperature;BME280_humidity;BME280_pressure;Samples;Min_cycle;Max_cycle;Signal;HPM_P1;HPM_P2
2023/07/29 00:02:23;;;;;;;10.73;3.70;;;;;;;;;;755026;183;915817;-65
2023/07/29 00:04:49;;;;;;;9.77;3.57;;;;;;;;;;756719;183;932577;-64
2023/07/29 00:07:15;;;;;;;6.40;3.70;;;;;;;;;;760015;182;859181;-58
2023/07/29 00:09:41;;;;;;;11.27;4.00;;;;;;;;;;753101;184;919490;-58
2023/07/29 00:12:07;;;;;;;8.30;3.57;;;;;;;;;;757661;183;917592;-64
2023/07/29 00:14:33;;;;;;;14.63;4.03;;;;;;;;;;754409;184;918113;-58
2023/07/29 00:16:59;;;;;;;6.57;4.50;;;;;;;;;;753186;184;818264;-57
2023/07/29 00:19:25;;;;;;;7.97;3.90;;;;;;;;;;753088;184;916677;-58
2023/07/29 00:21:50;;;;;;;8.63;3.73;;;;;;;;;;753384;184;918602;-64
2023/07/29 00:24:16;;;;;;;8.27;4.60;;;;;;;;;;762038;183;918207;-64
2023/07/29 00:26:42;;;;;;;10.47;4.23;;;;;;;;;;756613;183;917904;-64
2023/07/29 00:29:08;;;;;;;7.23;4.03;;;;;;;;;;751883;184;933631;-64
2023/07/29 00:31:34;;;;;;;14.77;4.43;;;;;;;;;;757448;184;919074;-64
2023/07/29 00:34:00;;;;;;;14.20;4.80;;;;;;;;;;753320;184;919954;-58
2023/07/29 00:36:25;;;;;;;16.60;4.97;;;;;;;;;;751261;184;916475;-65
2023/07/29 00:38:52;;;;;;;8.27;3.97;;;;;;;;;;762199;183;919465;-57
2023/07/29 00:41:18;;;;;;;10.10;4.67;;;;;;;;;;757895;182;818199;-64
2023/07/29 00:43:43;;;;;;;8.63;4.07;;;;;;;;;;753299;183;920112;-57
2023/07/29 00:46:09;;;;;;;7.37;4.03;;;;;;;;;;755197;184;914500;-58
2023/07/29 00:48:35;;;;;;;7.87;4.07;;;;;;;;;;760216;184;922508;-58
2023/07/29 00:51:00;;;;;;;8.67;4.90;;;;;;;;;;754199;183;921777;-64
2023/07/29 00:53:26;;;;;;;15.00;4.60;;;;;;;;;;759370;183;913250;-64
2023/07/29 00:55:52;;;;;;;16.90;4.63;;;;;;;;;;759525;183;917040;-57
2023/07/29 00:58:18;;;;;;;15.13;4.77;;;;;;;;;;760355;183;915937;-58
2023/07/29 01:00:44;;;;;;;19.47;4.70;;;;;;;;;;759398;183;916845;-64
2023/07/29 01:03:10;;;;;;;11.37;4.77;;;;;;;;;;760805;183;918639;-57
2023/07/29 01:05:36;;;;;;;10.40;3.93;;;;;;;;;;755062;182;918326;-57
2023/07/29 01:08:03;;;;;;;14.77;5.03;;;;;;;;;;753446;182;918912;-64
2023/07/29 01:10:30;;;;;;;10.97;4.23;;;;;;;;;;754647;184;918541;-64
2023/07/29 01:13:11;;;;;;;6.27;3.67;;;;;;;;;;761387;183;914456;-64
2023/07/29 01:15:38;;;;;;;12.40;3.60;;;;;;;;;;753501;185;920999;-59
2023/07/29 01:18:05;;;;;;;5.47;3.50;;;;;;;;;;755498;184;920596;-59
2023/07/29 01:20:31;;;;;;;22.73;4.83;;;;;;;;;;752036;184;924215;-59
2023/07/29 01:22:57;;;;;;;7.30;3.53;;;;;;;;;;754873;184;918994;-59
2023/07/29 01:25:23;;;;;;;9.80;4.13;;;;;;;;;;742247;184;914404;-59
2023/07/29 01:27:49;;;;;;;9.70;3.70;;;;;;;;;;748798;184;920919;-65
2023/07/29 01:30:14;;;;;;;9.37;4.23;;;;;;;;;;760276;184;918742;-59
2023/07/29 01:32:40;;;;;;;7.27;3.80;;;;;;;;;;755962;184;918603;-66
2023/07/29 01:35:10;;;;;;;7.77;3.67;;;;;;;;;;754296;184;920977;-59
2023/07/29 01:37:36;;;;;;;8.23;4.00;;;;;;;;;;753437;184;917972;-59
2023/07/29 01:40:01;;;;;;;8.93;3.83;;;;;;;;;;758468;184;861875;-66
2023/07/29 01:42:27;;;;;;;11.50;4.43;;;;;;;;;;757030;183;819003;-59
2023/07/29 01:44:53;;;;;;;7.32;4.57;;;;;;;;;;758264;183;918650;-60
2023/07/29 01:47:19;;;;;;;9.87;3.80;;;;;;;;;;758863;184;918844;-59
2023/07/29 01:49:45;;;;;;;7.47;4.10;;;;;;;;;;755252;183;919269;-59
2023/07/29 01:52:11;;;;;;;10.83;4.30;;;;;;;;;;756146;183;918659;-59
2023/07/29 01:54:36;;;;;;;14.90;4.70;;;;;;;;;;757477;183;916239;-59
2023/07/29 01:57:03;;;;;;;8.35;5.07;;;;;;;;;;758654;182;918790;-60
2023/07/29 01:59:28;;;;;;;8.50;4.67;;;;;;;;;;749552;183;920023;-66
2023/07/29 02:01:54;;;;;;;6.60;4.30;;;;;;;;;;752323;183;918992;-60
2023/07/29 02:04:20;;;;;;;15.73;5.60;;;;;;;;;;764761;180;919204;-59
2023/07/29 02:06:46;;;;;;;10.07;4.17;;;;;;;;;;755467;183;920463;-66
2023/07/29 02:09:12;;;;;;;7.50;3.83;;;;;;;;;;756477;184;915223;-66
2023/07/29 02:11:38;;;;;;;7.90;4.17;;;;;;;;;;763090;184;816820;-66
2023/07/29 02:14:03;;;;;;;9.63;4.90;;;;;;;;;;757292;183;919342;-65
2023/07/29 02:16:29;;;;;;;10.43;3.70;;;;;;;;;;753986;182;922137;-66
2023/07/29 02:18:55;;;;;;;7.07;3.90;;;;;;;;;;759111;184;918171;-59
2023/07/29 02:21:21;;;;;;;9.07;3.90;;;;;;;;;;752518;183;919367;-65
2023/07/29 02:23:47;;;;;;;12.55;3.90;;;;;;;;;;748297;182;919503;-65
2023/07/29 02:26:13;;;;;;;10.37;3.87;;;;;;;;;;758024;182;920889;-65
2023/07/29 02:28:38;;;;;;;9.40;3.90;;;;;;;;;;760073;183;820799;-65
2023/07/29 02:31:24;;;;;;;10.83;4.37;;;;;;;;;;754246;183;910450;-59
2023/07/29 02:33:50;;;;;;;11.53;4.27;;;;;;;;;;754966;183;911723;-60
2023/07/29 02:36:16;;;;;;;11.20;3.87;;;;;;;;;;757400;182;919459;-65
2023/07/29 02:38:42;;;;;;;7.77;4.20;;;;;;;;;;758512;184;920148;-65
2023/07/29 02:41:09;;;;;;;9.30;4.17;;;;;;;;;;754870;184;901405;-59
2023/07/29 02:43:33;;;;;;;9.93;3.60;;;;;;;;;;755793;183;919376;-59
2023/07/29 02:45:59;;;;;;;9.40;5.60;;;;;;;;;;755403;183;904673;-60
2023/07/29 02:48:25;;;;;;;14.50;4.30;;;;;;;;;;758924;184;714790;-59
2023/07/29 02:50:51;;;;;;;8.47;4.10;;;;;;;;;;755634;183;919110;-65
2023/07/29 02:53:17;;;;;;;4.50;3.47;;;;;;;;;;752410;183;918268;-59
2023/07/29 02:55:43;;;;;;;9.80;3.97;;;;;;;;;;763660;183;896003;-59
2023/07/29 02:58:08;;;;;;;7.27;3.77;;;;;;;;;;750801;184;911754;-65
2023/07/29 03:00:35;;;;;;;13.13;3.60;;;;;;;;;;756606;183;915333;-65
2023/07/29 03:03:00;;;;;;;6.83;3.53;;;;;;;;;;762014;184;918134;-65
2023/07/29 03:05:28;;;;;;;10.80;4.37;;;;;;;;;;753637;184;913537;-66
2023/07/29 03:07:54;;;;;;;13.43;4.03;;;;;;;;;;754181;184;1018320;-59
2023/07/29 03:10:20;;;;;;;9.77;3.93;;;;;;;;;;756744;183;922140;-59
2023/07/29 03:12:46;;;;;;;27.03;5.67;;;;;;;;;;749262;184;915029;-58
2023/07/29 03:15:12;;;;;;;7.20;3.80;;;;;;;;;;753065;183;921882;-66
2023/07/29 03:17:38;;;;;;;10.40;3.10;;;;;;;;;;755381;183;918859;-59
2023/07/29 03:20:04;;;;;;;11.83;3.53;;;;;;;;;;759649;184;921970;-67
2023/07/29 03:22:30;;;;;;;16.50;4.80;;;;;;;;;;757634;183;921994;-68
2023/07/29 03:24:55;;;;;;;24.30;6.73;;;;;;;;;;757800;183;920951;-66
2023/07/29 03:27:21;;;;;;;9.40;5.37;;;;;;;;;;762798;183;919448;-65
2023/07/29 03:29:47;;;;;;;9.30;4.27;;;;;;;;;;757396;184;918180;-66
2023/07/29 03:32:13;;;;;;;8.33;4.30;;;;;;;;;;758440;184;921158;-59
2023/07/29 03:34:40;;;;;;;16.43;4.10;;;;;;;;;;760026;183;816414;-66
2023/07/29 03:37:05;;;;;;;6.67;4.03;;;;;;;;;;753785;183;912346;-58
2023/07/29 03:39:30;;;;;;;9.23;4.43;;;;;;;;;;753916;183;914181;-59
2023/07/29 03:41:56;;;;;;;6.20;3.63;;;;;;;;;;758227;183;881525;-65
2023/07/29 03:44:22;;;;;;;22.10;4.43;;;;;;;;;;758796;184;898433;-66
2023/07/29 03:46:48;;;;;;;42.27;5.87;;;;;;;;;;754120;183;917850;-59
2023/07/29 03:49:14;;;;;;;15.37;4.40;;;;;;;;;;756408;184;919166;-59
2023/07/29 03:51:40;;;;;;;17.83;4.20;;;;;;;;;;754122;184;923268;-66
2023/07/29 03:54:06;;;;;;;19.70;4.40;;;;;;;;;;753583;184;921590;-66
2023/07/29 03:56:31;;;;;;;23.10;5.07;;;;;;;;;;757560;183;918501;-66
2023/07/29 03:59:03;;;;;;;16.93;5.10;;;;;;;;;;758115;184;918301;-62
2023/07/29 04:01:29;;;;;;;19.12;5.30;;;;;;;;;;749145;185;925522;-59
2023/07/29 04:03:55;;;;;;;19.60;5.13;;;;;;;;;;749095;184;815575;-59
2023/07/29 04:06:21;;;;;;;19.30;6.00;;;;;;;;;;756025;183;915991;-59
2023/07/29 04:08:47;;;;;;;29.13;6.30;;;;;;;;;;757554;183;918279;-67
2023/07/29 04:11:12;;;;;;;18.83;5.77;;;;;;;;;;753184;184;919091;-66
2023/07/29 04:13:38;;;;;;;10.97;4.50;;;;;;;;;;748831;187;814433;-67
2023/07/29 04:16:04;;;;;;;8.37;4.97;;;;;;;;;;738013;188;916584;-66
2023/07/29 04:18:30;;;;;;;11.30;5.07;;;;;;;;;;753883;184;920015;-66
2023/07/29 04:20:56;;;;;;;7.63;4.83;;;;;;;;;;756428;184;911959;-59
2023/07/29 04:23:22;;;;;;;14.60;5.07;;;;;;;;;;751311;184;865651;-59
2023/07/29 04:25:48;;;;;;;27.23;5.97;;;;;;;;;;760978;183;919356;-59
2023/07/29 04:28:13;;;;;;;13.40;4.80;;;;;;;;;;752228;183;918477;-59
2023/07/29 04:30:39;;;;;;;12.20;6.30;;;;;;;;;;750896;183;918899;-66
2023/07/29 04:33:05;;;;;;;7.80;5.47;;;;;;;;;;762688;183;914798;-58
2023/07/29 04:35:31;;;;;;;12.93;5.40;;;;;;;;;;756930;183;918908;-59
2023/07/29 04:37:57;;;;;;;13.73;5.17;;;;;;;;;;752895;183;927897;-67
2023/07/29 04:40:23;;;;;;;9.83;4.63;;;;;;;;;;760269;183;821762;-66
2023/07/29 04:42:49;;;;;;;7.13;4.87;;;;;;;;;;752722;182;918831;-60
2023/07/29 04:45:15;;;;;;;12.43;4.90;;;;;;;;;;756847;183;920111;-66
2023/07/29 04:47:40;;;;;;;10.00;4.50;;;;;;;;;;754374;183;921398;-67
2023/07/29 04:50:07;;;;;;;13.83;4.73;;;;;;;;;;753301;183;919251;-59
2023/07/29 04:52:33;;;;;;;7.13;4.50;;;;;;;;;;751704;183;918831;-66
2023/07/29 04:54:58;;;;;;;9.40;4.80;;;;;;;;;;755026;183;918778;-59
2023/07/29 04:57:24;;;;;;;7.87;4.73;;;;;;;;;;756048;183;816535;-59
2023/07/29 04:59:50;;;;;;;10.10;3.95;;;;;;;;;;757015;182;885992;-66
2023/07/29 05:02:16;;;;;;;7.60;3.80;;;;;;;;;;752937;183;918975;-60
2023/07/29 05:04:42;;;;;;;5.60;3.87;;;;;;;;;;760167;183;915174;-59
2023/07/29 05:07:08;;;;;;;6.80;4.50;;;;;;;;;;756981;183;815390;-59
2023/07/29 05:09:34;;;;;;;8.03;3.83;;;;;;;;;;751733;183;917834;-59
2023/07/29 05:11:59;;;;;;;5.50;3.60;;;;;;;;;;760028;184;920171;-66
2023/07/29 05:14:25;;;;;;;8.03;3.90;;;;;;;;;;753312;184;932950;-59
2023/07/29 05:16:51;;;;;;;5.90;3.50;;;;;;;;;;756204;184;919462;-67
2023/07/29 05:19:17;;;;;;;7.10;3.43;;;;;;;;;;752964;184;918367;-67
2023/07/29 05:21:43;;;;;;;7.23;3.40;;;;;;;;;;758228;183;917528;-67
2023/07/29 05:24:08;;;;;;;9.00;3.50;;;;;;;;;;748870;184;918943;-68
2023/07/29 05:26:34;;;;;;;6.47;3.80;;;;;;;;;;753356;184;918581;-67
2023/07/29 05:29:00;;;;;;;7.03;3.73;;;;;;;;;;762375;183;918884;-60
2023/07/29 05:31:26;;;;;;;9.00;4.55;;;;;;;;;;758541;183;855221;-60
2023/07/29 05:33:52;;;;;;;6.30;3.83;;;;;;;;;;757163;184;918802;-60
2023/07/29 05:36:18;;;;;;;5.70;3.63;;;;;;;;;;759140;183;925090;-61
2023/07/29 05:38:44;;;;;;;8.60;3.83;;;;;;;;;;757333;183;930279;-69
2023/07/29 05:41:09;;;;;;;7.73;3.40;;;;;;;;;;754845;183;918852;-60
2023/07/29 05:43:35;;;;;;;7.37;4.20;;;;;;;;;;760729;182;884396;-67
2023/07/29 05:46:01;;;;;;;8.27;3.50;;;;;;;;;;757699;183;917781;-60
2023/07/29 05:48:27;;;;;;;8.23;3.80;;;;;;;;;;750636;184;919325;-60
2023/07/29 05:50:53;;;;;;;6.40;4.10;;;;;;;;;;756997;183;816685;-68
2023/07/29 05:53:19;;;;;;;11.10;3.90;;;;;;;;;;763805;183;813763;-69
2023/07/29 05:55:44;;;;;;;7.40;4.57;;;;;;;;;;757769;183;815472;-60
2023/07/29 05:58:10;;;;;;;5.80;4.20;;;;;;;;;;758630;183;815903;-60
2023/07/29 06:00:36;;;;;;;8.03;4.70;;;;;;;;;;761350;183;901127;-60
2023/07/29 06:03:02;;;;;;;11.70;4.22;;;;;;;;;;754957;182;910543;-60
2023/07/29 06:05:28;;;;;;;5.20;3.60;;;;;;;;;;753330;184;917674;-60
2023/07/29 06:07:54;;;;;;;6.00;3.60;;;;;;;;;;759560;183;918640;-60
2023/07/29 06:10:22;;;;;;;6.90;3.53;;;;;;;;;;754510;183;916606;-67
2023/07/29 06:12:46;;;;;;;9.43;3.90;;;;;;;;;;752853;183;919090;-67
2023/07/29 06:15:12;;;;;;;6.00;3.80;;;;;;;;;;754914;183;921582;-60
2023/07/29 06:17:38;;;;;;;4.60;3.60;;;;;;;;;;757915;184;917651;-68
2023/07/29 06:20:05;;;;;;;6.03;4.27;;;;;;;;;;756187;183;919773;-67
2023/07/29 06:22:30;;;;;;;9.87;3.50;;;;;;;;;;749142;183;918736;-67
2023/07/29 06:24:56;;;;;;;8.60;3.67;;;;;;;;;;758512;183;923185;-60
2023/07/29 06:27:22;;;;;;;7.27;4.00;;;;;;;;;;756351;184;848923;-67
2023/07/29 06:29:48;;;;;;;5.23;2.77;;;;;;;;;;757395;183;919765;-67
2023/07/29 06:32:14;;;;;;;4.73;3.53;;;;;;;;;;757971;183;853675;-68
2023/07/29 06:34:39;;;;;;;6.63;4.20;;;;;;;;;;755664;183;817882;-67
2023/07/29 06:37:05;;;;;;;8.93;4.57;;;;;;;;;;750666;184;857271;-67
2023/07/29 06:39:31;;;;;;;5.20;3.97;;;;;;;;;;752713;183;919952;-67
2023/07/29 06:41:57;;;;;;;6.73;4.10;;;;;;;;;;759687;183;914937;-68
2023/07/29 06:44:23;;;;;;;6.97;3.33;;;;;;;;;;756960;183;918125;-67
2023/07/29 06:46:49;;;;;;;9.90;4.00;;;;;;;;;;754927;183;919173;-60
2023/07/29 06:49:14;;;;;;;6.90;3.70;;;;;;;;;;754624;183;918293;-66
2023/07/29 06:51:40;;;;;;;5.37;3.10;;;;;;;;;;757741;183;919845;-60
2023/07/29 06:54:06;;;;;;;5.97;3.33;;;;;;;;;;754906;183;919751;-60
2023/07/29 06:56:32;;;;;;;4.97;3.13;;;;;;;;;;760015;183;919355;-58
2023/07/29 06:58:58;;;;;;;11.70;4.67;;;;;;;;;;755344;182;817187;-59
2023/07/29 07:01:24;;;;;;;8.07;3.10;;;;;;;;;;758742;183;810335;-61
2023/07/29 07:03:49;;;;;;;11.30;3.77;;;;;;;;;;753614;183;928320;-66
2023/07/29 07:06:15;;;;;;;6.60;3.47;;;;;;;;;;749856;185;911783;-68
2023/07/29 07:08:41;;;;;;;8.20;3.60;;;;;;;;;;747410;185;809777;-61
2023/07/29 07:11:07;;;;;;;6.18;3.62;;;;;;;;;;749151;185;860655;-67
2023/07/29 07:13:33;;;;;;;9.83;4.10;;;;;;;;;;758650;183;919232;-67
2023/07/29 07:15:59;;;;;;;14.00;4.20;;;;;;;;;;756673;183;919798;-61
2023/07/29 07:18:25;;;;;;;4.83;3.30;;;;;;;;;;757884;183;634938;-61
2023/07/29 07:20:50;;;;;;;4.60;2.80;;;;;;;;;;755413;184;917196;-60
2023/07/29 07:23:16;;;;;;;6.17;3.63;;;;;;;;;;759642;182;767169;-67
2023/07/29 07:25:42;;;;;;;5.60;3.07;;;;;;;;;;755952;183;910742;-67
2023/07/29 07:28:08;;;;;;;6.00;3.63;;;;;;;;;;760699;183;816083;-61
2023/07/29 07:30:34;;;;;;;4.90;2.93;;;;;;;;;;751778;183;928138;-60
2023/07/29 07:33:00;;;;;;;5.17;3.70;;;;;;;;;;756290;184;812243;-61
2023/07/29 07:35:25;;;;;;;5.13;2.60;;;;;;;;;;754547;183;848710;-61
2023/07/29 07:37:51;;;;;;;4.00;3.10;;;;;;;;;;765039;183;627251;-61
2023/07/29 07:40:17;;;;;;;4.27;2.93;;;;;;;;;;752529;183;807750;-61
2023/07/29 07:42:43;;;;;;;6.23;3.13;;;;;;;;;;752740;184;816888;-68
2023/07/29 07:45:09;;;;;;;4.87;3.20;;;;;;;;;;759780;183;818050;-69
2023/07/29 07:47:35;;;;;;;6.73;2.67;;;;;;;;;;755995;184;815422;-61
2023/07/29 07:50:00;;;;;;;7.23;3.33;;;;;;;;;;753742;183;894723;-61
2023/07/29 07:52:26;;;;;;;4.03;3.20;;;;;;;;;;758952;183;814328;-61
2023/07/29 07:54:53;;;;;;;5.10;3.30;;;;;;;;;;748213;184;917890;-61
2023/07/29 07:57:18;;;;;;;6.00;2.85;;;;;;;;;;751536;183;915981;-68
2023/07/29 07:59:44;;;;;;;11.70;2.70;;;;;;;;;;754549;184;918717;-61
2023/07/29 08:02:10;;;;;;;5.10;3.33;;;;;;;;;;756997;184;916860;-70
2023/07/29 08:04:35;;;;;;;5.97;3.30;;;;;;;;;;750250;183;919000;-68
2023/07/29 08:07:01;;;;;;;3.30;2.30;;;;;;;;;;757521;183;917824;-61
2023/07/29 08:09:27;;;;;;;3.80;2.73;;;;;;;;;;763032;183;947148;-70
2023/07/29 08:11:53;;;;;;;6.70;3.33;;;;;;;;;;752917;184;918264;-65
2023/07/29 08:14:19;;;;;;;5.17;3.20;;;;;;;;;;756147;183;904538;-68
2023/07/29 08:16:45;;;;;;;8.20;4.10;;;;;;;;;;760606;183;925633;-69
2023/07/29 08:19:11;;;;;;;5.10;3.30;;;;;;;;;;755313;183;920060;-69
2023/07/29 08:21:36;;;;;;;3.53;2.58;;;;;;;;;;757151;182;883812;-68
2023/07/29 08:24:03;;;;;;;4.10;3.10;;;;;;;;;;760250;184;919269;-68
2023/07/29 08:26:28;;;;;;;4.65;3.20;;;;;;;;;;744078;183;918632;-61
2023/07/29 08:28:54;;;;;;;4.20;3.23;;;;;;;;;;750663;183;919262;-61
2023/07/29 08:31:20;;;;;;;8.83;3.47;;;;;;;;;;753158;183;917306;-61
2023/07/29 08:33:46;;;;;;;4.53;3.40;;;;;;;;;;762367;183;919528;-61
2023/07/29 08:36:11;;;;;;;6.27;4.20;;;;;;;;;;754289;183;919258;-69
2023/07/29 08:38:37;;;;;;;6.20;4.27;;;;;;;;;;754667;183;915433;-62
2023/07/29 08:41:05;;;;;;;4.50;3.27;;;;;;;;;;757383;183;926856;-62
2023/07/29 08:43:31;;;;;;;6.87;4.00;;;;;;;;;;758017;183;916205;-63
2023/07/29 08:45:57;;;;;;;6.60;3.97;;;;;;;;;;758001;183;919918;-62
2023/07/29 08:48:23;;;;;;;4.63;3.40;;;;;;;;;;760227;183;918637;-69
2023/07/29 08:50:48;;;;;;;20.90;5.30;;;;;;;;;;755522;183;918766;-62
2023/07/29 08:53:14;;;;;;;5.57;4.13;;;;;;;;;;753608;184;918971;-61
2023/07/29 08:55:40;;;;;;;5.20;3.33;;;;;;;;;;754586;183;918105;-68
2023/07/29 08:58:06;;;;;;;4.50;3.63;;;;;;;;;;760284;184;919211;-62
2023/07/29 09:00:32;;;;;;;5.10;3.47;;;;;;;;;;753923;183;816507;-62
2023/07/29 09:03:02;;;;;;;5.87;4.22;;;;;;;;;;753795;183;817533;-62
2023/07/29 09:05:23;;;;;;;6.17;3.93;;;;;;;;;;760661;183;813102;-61
2023/07/29 09:07:49;;;;;;;5.87;3.10;;;;;;;;;;751799;183;920261;-62
2023/07/29 09:10:15;;;;;;;4.93;3.70;;;;;;;;;;749828;184;927154;-68
2023/07/29 09:12:41;;;;;;;6.03;4.23;;;;;;;;;;760318;183;622034;-61
2023/07/29 09:15:07;;;;;;;6.10;3.57;;;;;;;;;;761797;183;746901;-61
2023/07/29 09:17:33;;;;;;;5.27;3.60;;;;;;;;;;754159;183;923696;-68
2023/07/29 09:19:59;;;;;;;5.90;3.57;;;;;;;;;;758659;184;919668;-67
2023/07/29 09:22:25;;;;;;;5.07;3.80;;;;;;;;;;754077;184;790220;-61
2023/07/29 09:24:51;;;;;;;4.90;4.13;;;;;;;;;;754466;184;815561;-63
2023/07/29 09:27:22;;;;;;;4.27;3.27;;;;;;;;;;758901;183;836411;-68
2023/07/29 09:29:48;;;;;;;5.17;3.40;;;;;;;;;;760821;183;629738;-61
2023/07/29 09:32:19;;;;;;;8.23;3.73;;;;;;;;;;758382;183;640595;-68
2023/07/29 09:34:44;;;;;;;6.00;3.70;;;;;;;;;;760503;183;895810;-67
2023/07/29 09:37:10;;;;;;;4.97;3.05;;;;;;;;;;753223;183;914896;-68
2023/07/29 09:39:36;;;;;;;8.90;3.60;;;;;;;;;;759423;183;936530;-61
2023/07/29 09:42:02;;;;;;;4.70;3.60;;;;;;;;;;754980;183;910854;-68
2023/07/29 09:44:28;;;;;;;4.10;3.40;;;;;;;;;;745833;184;914835;-68
2023/07/29 09:46:54;;;;;;;5.50;3.80;;;;;;;;;;759607;183;930096;-68
2023/07/29 09:49:20;;;;;;;4.40;3.50;;;;;;;;;;758551;183;922949;-62
2023/07/29 09:51:46;;;;;;;4.63;3.70;;;;;;;;;;753452;183;911903;-61
2023/07/29 09:54:13;;;;;;;4.90;3.43;;;;;;;;;;755922;185;895351;-68
2023/07/29 09:56:37;;;;;;;5.47;3.33;;;;;;;;;;749648;185;921151;-61
2023/07/29 09:59:03;;;;;;;4.97;2.80;;;;;;;;;;752374;183;917303;-62
2023/07/29 10:01:29;;;;;;;5.80;2.90;;;;;;;;;;758270;183;918155;-67
2023/07/29 10:03:56;;;;;;;4.63;2.70;;;;;;;;;;759236;183;822925;-62
2023/07/29 10:06:21;;;;;;;8.13;2.70;;;;;;;;;;756049;184;915426;-68
2023/07/29 10:08:47;;;;;;;3.70;2.77;;;;;;;;;;755095;183;919328;-61
2023/07/29 10:11:13;;;;;;;4.37;3.50;;;;;;;;;;759512;183;919323;-61
2023/07/29 10:13:38;;;;;;;5.50;2.70;;;;;;;;;;757175;183;918804;-61
2023/07/29 10:16:05;;;;;;;4.57;2.33;;;;;;;;;;755532;184;820856;-68
2023/07/29 10:18:30;;;;;;;3.87;2.43;;;;;;;;;;757998;184;812565;-61
2023/07/29 10:20:56;;;;;;;4.33;2.80;;;;;;;;;;757934;183;812898;-68
2023/07/29 10:23:22;;;;;;;5.37;2.20;;;;;;;;;;744818;182;937468;-69
2023/07/29 10:25:48;;;;;;;3.30;2.50;;;;;;;;;;756174;182;918483;-69
2023/07/29 10:28:13;;;;;;;4.80;2.50;;;;;;;;;;757758;184;813624;-68
2023/07/29 10:30:39;;;;;;;3.10;2.20;;;;;;;;;;758049;182;919334;-61
2023/07/29 10:33:06;;;;;;;3.60;2.50;;;;;;;;;;754182;184;899419;-62
2023/07/29 10:35:31;;;;;;;4.10;2.07;;;;;;;;;;758788;184;888991;-62
2023/07/29 10:37:57;;;;;;;3.60;2.40;;;;;;;;;;749311;184;918809;-67
2023/07/29 10:40:23;;;;;;;3.07;2.03;;;;;;;;;;749741;183;918267;-68
2023/07/29 10:42:54;;;;;;;3.87;2.00;;;;;;;;;;757446;183;919492;-61
2023/07/29 10:45:21;;;;;;;3.30;1.93;;;;;;;;;;756911;184;819178;-61
2023/07/29 10:47:47;;;;;;;3.43;2.20;;;;;;;;;;757612;183;672492;-62
2023/07/29 10:50:17;;;;;;;3.20;1.60;;;;;;;;;;755631;183;914644;-62
2023/07/29 10:52:43;;;;;;;3.00;1.97;;;;;;;;;;755603;183;918522;-61
2023/07/29 10:55:30;;;;;;;4.60;2.40;;;;;;;;;;756958;183;813489;-67
2023/07/29 10:58:10;;;;;;;2.67;1.90;;;;;;;;;;754173;183;919676;-60
2023/07/29 11:00:36;;;;;;;3.70;2.17;;;;;;;;;;756033;183;816524;-60
2023/07/29 11:03:02;;;;;;;3.23;2.10;;;;;;;;;;755961;183;819991;-61
2023/07/29 11:05:28;;;;;;;2.73;1.83;;;;;;;;;;754627;183;818965;-60
2023/07/29 11:07:54;;;;;;;3.10;1.83;;;;;;;;;;746758;184;920193;-60
2023/07/29 11:10:20;;;;;;;3.13;2.03;;;;;;;;;;749653;183;916454;-60
2023/07/29 11:12:47;;;;;;;3.33;1.83;;;;;;;;;;753677;183;915958;-60
2023/07/29 11:15:13;;;;;;;2.60;1.70;;;;;;;;;;757631;183;814750;-60
2023/07/29 11:17:39;;;;;;;5.37;1.60;;;;;;;;;;755421;183;912330;-60
2023/07/29 11:20:07;;;;;;;7.13;1.80;;;;;;;;;;755079;183;941496;-60
2023/07/29 11:22:31;;;;;;;2.77;1.60;;;;;;;;;;761331;183;890719;-60
2023/07/29 11:24:57;;;;;;;2.83;1.90;;;;;;;;;;754696;183;851731;-60
2023/07/29 11:27:23;;;;;;;3.93;1.50;;;;;;;;;;755893;183;921787;-60
2023/07/29 11:29:49;;;;;;;2.73;1.77;;;;;;;;;;753371;184;919261;-62
2023/07/29 11:32:15;;;;;;;3.23;1.90;;;;;;;;;;760432;184;918520;-60
2023/07/29 11:34:41;;;;;;;3.20;1.67;;;;;;;;;;749791;183;917877;-60
2023/07/29 11:37:07;;;;;;;2.77;1.60;;;;;;;;;;757151;183;820325;-60
2023/07/29 11:39:32;;;;;;;2.43;1.40;;;;;;;;;;760874;183;917129;-60
2023/07/29 11:41:58;;;;;;;5.03;2.10;;;;;;;;;;758935;182;817132;-60
2023/07/29 11:44:24;;;;;;;4.07;1.67;;;;;;;;;;755274;182;917364;-60
2023/07/29 11:46:50;;;;;;;2.67;1.43;;;;;;;;;;760585;183;892728;-60
2023/07/29 11:49:16;;;;;;;2.80;1.60;;;;;;;;;;757857;183;928555;-61
2023/07/29 11:51:42;;;;;;;2.83;1.50;;;;;;;;;;758693;182;818879;-59
2023/07/29 11:54:08;;;;;;;2.47;1.57;;;;;;;;;;753935;183;932038;-60
2023/07/29 11:56:33;;;;;;;2.57;1.70;;;;;;;;;;761501;183;622653;-60
2023/07/29 11:58:59;;;;;;;3.00;1.20;;;;;;;;;;752193;184;634666;-60
2023/07/29 12:01:25;;;;;;;2.80;1.60;;;;;;;;;;759411;183;710079;-59
2023/07/29 12:03:51;;;;;;;3.37;1.80;;;;;;;;;;758888;183;904877;-59
2023/07/29 12:06:17;;;;;;;2.43;1.33;;;;;;;;;;751468;183;900503;-60
2023/07/29 12:08:43;;;;;;;3.67;1.80;;;;;;;;;;756251;183;952905;-60
2023/07/29 12:11:08;;;;;;;2.30;1.40;;;;;;;;;;761348;182;768183;-60
2023/07/29 12:13:34;;;;;;;3.00;1.50;;;;;;;;;;756976;184;816373;-60
2023/07/29 12:16:01;;;;;;;2.70;1.70;;;;;;;;;;757011;183;641945;-60
2023/07/29 12:18:30;;;;;;;4.43;1.15;;;;;;;;;;757663;184;919388;-60
2023/07/29 12:20:55;;;;;;;3.20;1.33;;;;;;;;;;750120;181;860701;-60
2023/07/29 12:23:21;;;;;;;2.70;1.30;;;;;;;;;;751088;183;915761;-60
2023/07/29 12:25:47;;;;;;;3.53;1.60;;;;;;;;;;753834;183;814103;-60
2023/07/29 12:28:13;;;;;;;2.57;1.37;;;;;;;;;;760141;183;901442;-60
2023/07/29 12:30:41;;;;;;;2.60;1.40;;;;;;;;;;753605;183;915090;-60
2023/07/29 12:33:07;;;;;;;5.00;1.20;;;;;;;;;;750839;183;934650;-60
2023/07/29 12:35:34;;;;;;;2.97;1.67;;;;;;;;;;755412;184;929563;-60
2023/07/29 12:38:00;;;;;;;2.47;1.30;;;;;;;;;;751497;183;918987;-60
2023/07/29 12:40:27;;;;;;;2.77;1.40;;;;;;;;;;750570;183;907191;-60
2023/07/29 12:42:52;;;;;;;2.60;1.43;;;;;;;;;;751973;183;927615;-60
2023/07/29 12:45:18;;;;;;;2.60;1.40;;;;;;;;;;758402;183;811719;-60
2023/07/29 12:47:44;;;;;;;8.33;1.43;;;;;;;;;;757262;182;919333;-61
2023/07/29 12:50:10;;;;;;;2.28;1.23;;;;;;;;;;756794;182;918646;-61
2023/07/29 12:52:36;;;;;;;2.50;1.40;;;;;;;;;;759589;183;855247;-61
2023/07/29 12:55:02;;;;;;;4.00;1.30;;;;;;;;;;756974;184;924161;-61
2023/07/29 12:57:28;;;;;;;2.87;1.77;;;;;;;;;;751745;183;919594;-60
2023/07/29 12:59:53;;;;;;;3.07;1.73;;;;;;;;;;756093;183;919562;-60
2023/07/29 13:02:19;;;;;;;2.37;1.20;;;;;;;;;;751746;182;918426;-69
2023/07/29 13:04:45;;;;;;;2.30;1.30;;;;;;;;;;750960;183;894929;-68
2023/07/29 13:07:11;;;;;;;2.20;1.13;;;;;;;;;;746758;184;909929;-68
2023/07/29 13:09:37;;;;;;;4.30;1.60;;;;;;;;;;759591;183;811797;-69
2023/07/29 13:12:03;;;;;;;2.17;1.10;;;;;;;;;;751663;183;842771;-66
2023/07/29 13:14:29;;;;;;;3.23;1.10;;;;;;;;;;755315;183;918007;-70
2023/07/29 13:16:55;;;;;;;2.47;1.40;;;;;;;;;;759263;183;918986;-67
2023/07/29 13:19:21;;;;;;;3.73;1.30;;;;;;;;;;759199;183;817410;-69
2023/07/29 13:21:46;;;;;;;2.07;1.00;;;;;;;;;;755361;183;916461;-68
2023/07/29 13:24:12;;;;;;;2.23;1.13;;;;;;;;;;760055;183;924663;-69
2023/07/29 13:26:38;;;;;;;2.50;1.40;;;;;;;;;;755186;183;893746;-69
2023/07/29 13:29:04;;;;;;;2.30;1.20;;;;;;;;;;749227;184;936360;-70
2023/07/29 13:31:30;;;;;;;4.10;1.57;;;;;;;;;;756116;184;919066;-68
2023/07/29 13:33:56;;;;;;;2.43;1.40;;;;;;;;;;741944;187;929997;-67
2023/07/29 13:36:22;;;;;;;3.00;1.77;;;;;;;;;;755527;183;918474;-69
2023/07/29 13:38:47;;;;;;;2.90;1.70;;;;;;;;;;749872;184;924039;-67
2023/07/29 13:41:13;;;;;;;3.00;1.63;;;;;;;;;;757259;183;915042;-69
2023/07/29 13:43:39;;;;;;;4.20;1.80;;;;;;;;;;752442;184;928841;-69
2023/07/29 13:46:05;;;;;;;2.47;1.47;;;;;;;;;;752219;183;933558;-70
2023/07/29 13:48:32;;;;;;;3.60;1.50;;;;;;;;;;759026;183;916117;-69
2023/07/29 13:50:57;;;;;;;2.40;1.53;;;;;;;;;;757722;183;959453;-68
2023/07/29 13:53:22;;;;;;;3.03;1.50;;;;;;;;;;751536;184;824670;-71
2023/07/29 13:55:48;;;;;;;3.07;1.80;;;;;;;;;;760965;184;880064;-69
2023/07/29 13:58:14;;;;;;;2.40;1.30;;;;;;;;;;759127;183;921069;-69
2023/07/29 14:00:40;;;;;;;2.40;1.60;;;;;;;;;;754227;183;919113;-70
2023/07/29 14:03:06;;;;;;;2.70;1.33;;;;;;;;;;756072;183;921630;-68
2023/07/29 14:05:32;;;;;;;3.10;1.83;;;;;;;;;;757793;183;904367;-69
2023/07/29 14:07:58;;;;;;;4.97;1.60;;;;;;;;;;752603;182;914373;-68
2023/07/29 14:10:23;;;;;;;2.87;1.80;;;;;;;;;;754774;182;854051;-68
2023/07/29 14:12:49;;;;;;;2.40;1.40;;;;;;;;;;760719;183;922576;-70
2023/07/29 14:15:15;;;;;;;2.80;2.00;;;;;;;;;;749045;184;894224;-67
2023/07/29 14:17:41;;;;;;;2.80;1.67;;;;;;;;;;755997;183;909527;-69
2023/07/29 14:20:07;;;;;;;4.50;1.57;;;;;;;;;;759701;183;919163;-68
2023/07/29 14:22:33;;;;;;;2.80;1.80;;;;;;;;;;755105;183;920590;-69